createdAt,value
2019-06-20T00:00:41.318Z,27.90
2019-06-20T00:03:09.917Z,27.90
2019-06-20T00:05:38.559Z,27.90
2019-06-20T00:08:07.059Z,27.80
2019-06-20T00:10:35.540Z,27.80
2019-06-20T00:13:04.570Z,27.70
2019-06-20T00:15:33.653Z,27.70
2019-06-20T00:18:02.214Z,27.60
2019-06-20T00:20:30.697Z,27.60
2019-06-20T00:22:59.197Z,27.60
2019-06-20T00:25:27.772Z,27.50
2019-06-20T00:27:56.412Z,27.50
2019-06-20T00:30:25.039Z,27.50
2019-06-20T00:32:53.643Z,27.40
2019-06-20T00:35:22.117Z,27.40
2019-06-20T00:37:50.604Z,27.40
2019-06-20T00:40:19.508Z,27.40
2019-06-20T00:42:48.147Z,27.30
2019-06-20T00:45:17.069Z,27.30
2019-06-20T00:47:45.581Z,27.20
2019-06-20T00:50:14.816Z,27.20
2019-06-20T00:52:43.370Z,27.10
2019-06-20T00:55:12.213Z,27.10
2019-06-20T00:57:40.664Z,27.00
2019-06-20T01:00:11.071Z,27.00
2019-06-20T01:02:39.664Z,27.00
2019-06-20T01:05:08.479Z,27.00
2019-06-20T01:07:37.051Z,27.00
2019-06-20T01:10:07.595Z,26.90
2019-06-20T01:12:36.080Z,26.90
2019-06-20T01:15:07.038Z,26.90
2019-06-20T01:17:35.556Z,26.90
2019-06-20T01:20:06.253Z,26.90
2019-06-20T01:22:34.806Z,26.90
2019-06-20T01:25:03.906Z,26.80
2019-06-20T01:27:32.514Z,26.90
2019-06-20T01:30:01.166Z,26.80
2019-06-20T01:32:29.768Z,26.80
2019-06-20T01:34:58.245Z,26.80
2019-06-20T01:37:26.779Z,26.80
2019-06-20T01:39:55.294Z,26.70
2019-06-20T01:42:23.789Z,26.60
2019-06-20T01:44:52.299Z,26.60
2019-06-20T01:47:20.831Z,26.50
2019-06-20T01:49:49.419Z,26.40
2019-06-20T01:52:17.990Z,26.30
2019-06-20T01:54:46.622Z,26.20
2019-06-20T01:57:15.063Z,26.20
2019-06-20T01:59:43.729Z,26.10
2019-06-20T02:02:12.282Z,26.00
2019-06-20T02:04:40.901Z,26.00
2019-06-20T02:07:09.503Z,25.90
2019-06-20T02:09:38.044Z,25.90
2019-06-20T02:12:07.173Z,25.90
2019-06-20T02:14:35.721Z,25.90
2019-06-20T02:17:04.488Z,25.80
2019-06-20T02:19:32.989Z,25.80
2019-06-20T02:22:01.674Z,25.80
2019-06-20T02:24:30.303Z,25.70
2019-06-20T02:26:58.789Z,25.70
2019-06-20T02:29:27.247Z,25.70
2019-06-20T02:31:55.763Z,25.70
2019-06-20T02:34:24.221Z,25.70
2019-06-20T02:36:52.742Z,25.60
2019-06-20T02:39:21.200Z,25.60
2019-06-20T02:41:49.821Z,25.50
2019-06-20T02:44:29.957Z,25.50
2019-06-20T02:46:48.933Z,25.50
2019-06-20T02:49:17.521Z,25.50
2019-06-20T02:51:46.400Z,25.50
2019-06-20T02:54:14.907Z,25.50
2019-06-20T02:56:43.358Z,25.50
2019-06-20T02:59:11.848Z,25.50
2019-06-20T03:01:40.301Z,25.50
2019-06-20T03:04:08.832Z,25.50
2019-06-20T03:06:37.391Z,25.50
2019-06-20T03:09:06.971Z,25.50
2019-06-20T03:11:35.536Z,25.50
2019-06-20T03:14:04.603Z,25.40
2019-06-20T03:16:33.177Z,25.40
2019-06-20T03:19:01.815Z,25.40
2019-06-20T03:21:30.603Z,25.40
2019-06-20T03:23:59.111Z,25.30
2019-06-20T03:26:27.649Z,25.30
2019-06-20T03:28:56.225Z,25.20
2019-06-20T03:31:24.737Z,25.20
2019-06-20T03:33:53.258Z,25.10
2019-06-20T03:36:21.805Z,25.10
2019-06-20T03:38:50.288Z,25.00
2019-06-20T03:41:18.769Z,25.00
2019-06-20T03:43:47.315Z,25.00
2019-06-20T03:46:15.867Z,25.00
2019-06-20T03:48:44.321Z,25.00
2019-06-20T03:51:12.811Z,25.00
2019-06-20T03:53:41.357Z,24.90
2019-06-20T03:56:10.157Z,24.90
2019-06-20T03:58:38.717Z,24.90
2019-06-20T04:01:07.257Z,24.90
2019-06-20T04:03:35.800Z,24.90
2019-06-20T04:06:04.546Z,24.90
2019-06-20T04:08:33.069Z,24.90
2019-06-20T04:11:01.737Z,24.90
2019-06-20T04:13:30.238Z,24.90
2019-06-20T04:15:58.693Z,24.90
2019-06-20T04:18:27.177Z,24.90
2019-06-20T04:20:55.975Z,24.80
2019-06-20T04:23:24.571Z,24.80
2019-06-20T04:25:53.179Z,24.80
2019-06-20T04:28:21.771Z,24.70
2019-06-20T04:30:50.335Z,24.70
2019-06-20T04:33:18.901Z,24.70
2019-06-20T04:35:47.393Z,24.70
2019-06-20T04:38:15.853Z,24.70
2019-06-20T04:40:44.446Z,24.70
2019-06-20T04:43:13.003Z,24.70
2019-06-20T04:45:43.131Z,24.70
2019-06-20T04:48:11.631Z,24.80
2019-06-20T04:50:40.152Z,24.70
2019-06-20T04:53:08.926Z,24.80
2019-06-20T04:55:37.512Z,24.80
2019-06-20T04:58:06.273Z,24.90
2019-06-20T05:00:34.790Z,24.80
2019-06-20T05:03:03.615Z,24.90
2019-06-20T05:05:32.096Z,24.90
2019-06-20T05:08:00.631Z,24.90
2019-06-20T05:10:29.207Z,24.90
2019-06-20T05:12:57.827Z,25.00
2019-06-20T05:15:26.610Z,24.90
2019-06-20T05:17:55.128Z,24.90
2019-06-20T05:20:23.623Z,24.90
2019-06-20T05:22:52.245Z,24.90
2019-06-20T05:25:20.845Z,24.90
2019-06-20T05:27:49.402Z,24.90
2019-06-20T05:30:18.066Z,24.80
2019-06-20T05:32:46.585Z,24.80
2019-06-20T05:35:15.260Z,24.70
2019-06-20T05:37:43.725Z,24.70
2019-06-20T05:40:12.561Z,24.70
2019-06-20T05:42:41.144Z,24.70
2019-06-20T05:45:10.055Z,24.70
2019-06-20T05:47:38.550Z,24.80
2019-06-20T05:50:09.026Z,24.80
2019-06-20T05:52:37.600Z,25.00
2019-06-20T05:55:06.985Z,25.10
2019-06-20T05:57:35.523Z,25.20
2019-06-20T06:00:08.647Z,25.20
2019-06-20T06:02:37.315Z,25.40
2019-06-20T06:05:06.605Z,25.50
2019-06-20T06:07:35.416Z,25.50
2019-06-20T06:10:08.818Z,25.60
2019-06-20T06:12:37.348Z,25.70
2019-06-20T06:15:07.723Z,25.70
2019-06-20T06:17:36.412Z,25.90
2019-06-20T06:20:09.919Z,25.90
2019-06-20T06:22:38.644Z,26.00
2019-06-20T06:25:08.149Z,26.00
2019-06-20T06:27:37.221Z,26.10
2019-06-20T06:30:07.874Z,26.20
2019-06-20T06:32:40.505Z,26.20
2019-06-20T06:35:08.672Z,26.20
2019-06-20T06:37:37.357Z,26.30
2019-06-20T06:40:09.093Z,26.30
2019-06-20T06:42:37.694Z,26.40
2019-06-20T06:45:10.297Z,26.40
2019-06-20T06:47:38.878Z,26.40
2019-06-20T06:50:09.357Z,26.40
2019-06-20T06:52:38.051Z,26.40
2019-06-20T06:55:08.279Z,26.40
2019-06-20T06:57:36.897Z,26.40
2019-06-20T07:00:14.155Z,26.50
2019-06-20T07:02:42.755Z,26.50
2019-06-20T07:05:11.765Z,26.40
2019-06-20T07:07:40.489Z,26.50
2019-06-20T07:10:10.202Z,26.50
2019-06-20T07:12:39.272Z,26.50
2019-06-20T07:15:09.705Z,26.50
2019-06-20T07:17:38.297Z,26.60
2019-06-20T07:20:08.301Z,26.60
2019-06-20T07:22:37.056Z,26.70
2019-06-20T07:25:07.402Z,26.70
2019-06-20T07:27:36.151Z,26.70
2019-06-20T07:30:10.362Z,26.70
2019-06-20T07:32:39.389Z,26.70
2019-06-20T07:35:08.786Z,26.80
2019-06-20T07:37:37.247Z,26.80
2019-06-20T07:40:08.109Z,26.80
2019-06-20T07:42:36.742Z,26.70
2019-06-20T07:45:09.840Z,26.70
2019-06-20T07:47:38.772Z,26.60
2019-06-20T07:50:09.276Z,26.60
2019-06-20T07:52:37.901Z,26.60
2019-06-20T07:55:08.307Z,26.60
2019-06-20T07:57:36.941Z,26.60
2019-06-20T08:00:10.501Z,26.60
2019-06-20T08:02:39.210Z,26.60
2019-06-20T08:05:08.734Z,26.60
2019-06-20T08:07:37.252Z,26.70
2019-06-20T08:10:11.846Z,26.70
2019-06-20T08:12:40.475Z,26.90
2019-06-20T08:15:15.030Z,26.90
2019-06-20T08:17:40.278Z,27.10
2019-06-20T08:20:11.085Z,27.10
2019-06-20T08:22:39.840Z,27.30
2019-06-20T08:25:09.151Z,27.30
2019-06-20T08:27:49.982Z,27.60
2019-06-20T08:30:21.341Z,27.60
2019-06-20T08:32:50.544Z,27.70
2019-06-20T08:35:24.358Z,27.70
2019-06-20T08:37:54.124Z,27.90
2019-06-20T08:40:24.192Z,27.90
2019-06-20T08:42:53.198Z,28.10
2019-06-20T08:45:22.632Z,28.10
2019-06-20T08:47:51.242Z,28.20
2019-06-20T08:50:20.440Z,28.20
2019-06-20T08:52:50.677Z,28.30
2019-06-20T08:55:20.014Z,28.30
2019-06-20T08:57:49.132Z,28.30
2019-06-20T09:00:19.115Z,28.30
2019-06-20T09:02:47.768Z,28.30
2019-06-20T09:05:18.133Z,28.30
2019-06-20T09:07:46.752Z,28.20
2019-06-20T09:10:16.115Z,28.20
2019-06-20T09:12:45.676Z,28.20
2019-06-20T09:15:14.761Z,28.20
2019-06-20T09:17:43.534Z,28.20
2019-06-20T09:20:13.898Z,28.20
2019-06-20T09:22:42.501Z,28.20
2019-06-20T09:25:11.436Z,28.20
2019-06-20T09:27:40.245Z,28.10
2019-06-20T09:30:10.501Z,28.10
2019-06-20T09:32:39.566Z,28.00
2019-06-20T09:35:09.236Z,28.00
2019-06-20T09:37:38.404Z,28.10
2019-06-20T09:40:08.637Z,28.00
2019-06-20T09:42:37.330Z,28.20
2019-06-20T09:45:10.191Z,28.20
2019-06-20T09:47:38.815Z,28.50
2019-06-20T09:50:09.006Z,28.40
2019-06-20T09:52:37.685Z,28.70
2019-06-20T09:55:08.347Z,28.80
2019-06-20T09:57:36.844Z,28.80
2019-06-20T10:00:13.543Z,28.90
2019-06-20T10:02:42.085Z,29.00
2019-06-20T10:05:11.358Z,29.00
2019-06-20T10:07:40.273Z,29.20
2019-06-20T10:10:11.523Z,29.20
2019-06-20T10:12:40.179Z,29.30
2019-06-20T10:15:24.019Z,29.30
2019-06-20T10:17:52.851Z,29.40
2019-06-20T10:20:22.778Z,29.40
2019-06-20T10:22:51.505Z,29.50
2019-06-20T10:25:20.370Z,29.50
2019-06-20T10:27:49.724Z,29.50
2019-06-20T10:30:21.429Z,29.40
2019-06-20T10:32:51.011Z,29.50
2019-06-20T10:35:20.466Z,29.50
2019-06-20T10:37:50.285Z,29.40
2019-06-20T10:40:20.369Z,29.30
2019-06-20T10:42:50.134Z,29.30
2019-06-20T10:45:21.185Z,29.20
2019-06-20T10:47:50.945Z,29.20
2019-06-20T10:50:20.139Z,29.20
2019-06-20T10:52:49.979Z,29.30
2019-06-20T10:55:19.514Z,29.30
2019-06-20T11:07:27.720Z,30.90
2019-06-20T11:09:56.389Z,29.60
2019-06-20T11:12:24.947Z,29.60
2019-06-20T11:14:53.499Z,29.60
2019-06-20T11:17:22.053Z,29.60
2019-06-20T11:19:50.855Z,29.70
2019-06-20T11:22:19.511Z,29.80
2019-06-20T11:24:48.189Z,29.80
2019-06-20T11:27:16.703Z,29.80
2019-06-20T11:29:46.547Z,29.80
2019-06-20T11:32:15.211Z,29.70
2019-06-20T11:34:44.742Z,29.60
2019-06-20T11:42:44.819Z,29.70
2019-06-20T11:45:13.773Z,29.60
2019-06-20T11:47:42.608Z,29.60
2019-06-20T11:50:12.807Z,29.60
2019-06-20T11:52:45.335Z,29.60
2019-06-20T11:55:12.187Z,29.60
2019-06-20T11:57:40.665Z,29.70
2019-06-20T12:00:09.674Z,29.70
2019-06-20T12:02:40.479Z,29.80
2019-06-20T12:05:11.673Z,29.80
2019-06-20T12:07:41.524Z,29.90
2019-06-20T12:10:12.215Z,29.90
2019-06-20T12:12:41.110Z,29.80
2019-06-20T12:15:12.403Z,29.80
2019-06-20T12:17:43.124Z,29.80
2019-06-20T12:20:12.920Z,29.90
2019-06-20T12:22:43.126Z,29.90
2019-06-20T12:25:12.349Z,29.90
2019-06-20T12:27:40.934Z,30.00
2019-06-20T12:30:12.912Z,30.00
2019-06-20T12:32:42.474Z,30.10
2019-06-20T12:35:11.933Z,30.10
2019-06-20T12:37:40.888Z,30.10
2019-06-20T12:40:09.911Z,30.10
2019-06-20T12:42:40.976Z,30.10
2019-06-20T12:45:11.259Z,30.10
2019-06-20T12:47:40.256Z,30.20
2019-06-20T12:50:09.710Z,30.20
2019-06-20T12:52:39.544Z,30.30
2019-06-20T12:55:08.938Z,30.20
2019-06-20T12:57:38.608Z,30.40
2019-06-20T13:00:09.830Z,30.30
2019-06-20T13:02:40.014Z,30.50
2019-06-20T13:05:09.566Z,30.50
2019-06-20T13:07:39.247Z,30.60
2019-06-20T13:10:10.117Z,30.50
2019-06-20T13:12:40.649Z,30.50
2019-06-20T13:15:09.477Z,30.50
2019-06-20T13:17:39.289Z,30.60
2019-06-20T13:20:09.471Z,30.60
2019-06-20T13:22:39.559Z,30.70
2019-06-20T13:25:09.001Z,30.70
2019-06-20T13:27:39.088Z,30.80
2019-06-20T13:30:09.900Z,30.80
2019-06-20T13:32:41.175Z,30.90
2019-06-20T13:35:09.769Z,30.90
2019-06-20T13:37:39.741Z,31.20
2019-06-20T13:40:12.375Z,31.20
2019-06-20T13:42:42.648Z,31.40
2019-06-20T13:45:23.016Z,31.40
2019-06-20T13:47:51.993Z,31.50
2019-06-20T13:50:22.481Z,31.40
2019-06-20T13:52:51.517Z,31.50
2019-06-20T13:55:20.166Z,31.50
2019-06-20T13:57:49.353Z,31.50
2019-06-20T14:00:20.467Z,31.50
2019-06-20T14:02:50.750Z,31.50
2019-06-20T14:05:20.277Z,31.60
2019-06-20T14:07:51.873Z,31.50
2019-06-20T14:10:20.062Z,31.50
2019-06-20T14:12:49.175Z,31.50
2019-06-20T14:15:19.931Z,31.50
2019-06-20T14:17:49.979Z,31.30
2019-06-20T14:20:20.551Z,31.30
2019-06-20T14:22:49.675Z,31.20
2019-06-20T14:25:19.070Z,31.20
2019-06-20T14:27:49.040Z,31.20
2019-06-20T14:30:18.372Z,31.20
2019-06-20T14:32:47.254Z,31.00
2019-06-20T14:35:16.267Z,30.90
2019-06-20T14:37:46.052Z,30.80
2019-06-20T14:40:15.607Z,30.80
2019-06-20T14:42:45.839Z,30.60
2019-06-20T14:45:15.205Z,30.60
2019-06-20T14:47:44.323Z,30.50
2019-06-20T14:50:13.774Z,30.50
2019-06-20T14:52:42.900Z,30.40
2019-06-20T14:55:13.761Z,30.40
2019-06-20T14:57:44.648Z,30.20
2019-06-20T15:00:13.229Z,30.10
2019-06-20T15:02:41.809Z,30.00
2019-06-20T15:05:15.304Z,30.00
2019-06-20T15:07:46.711Z,29.80
2019-06-20T15:10:15.524Z,29.80
2019-06-20T15:12:45.787Z,29.60
2019-06-20T15:15:15.230Z,29.60
2019-06-20T15:17:46.476Z,29.40
2019-06-20T15:20:14.828Z,29.40
2019-06-20T15:22:43.455Z,29.20
2019-06-20T15:25:12.783Z,29.20
2019-06-20T15:27:41.468Z,29.10
2019-06-20T15:30:14.085Z,29.10
2019-06-20T15:32:55.844Z,29.00
2019-06-20T15:35:13.444Z,29.00
2019-06-20T15:37:42.241Z,28.90
2019-06-20T15:40:12.462Z,28.90
2019-06-20T15:42:41.142Z,28.80
2019-06-20T15:45:10.001Z,28.70
2019-06-20T15:47:39.241Z,28.70
2019-06-20T15:50:10.583Z,28.70
2019-06-20T15:52:40.312Z,28.60
2019-06-20T15:55:11.276Z,28.60
2019-06-20T15:57:40.468Z,28.50
2019-06-20T16:00:11.122Z,28.50
2019-06-20T16:02:39.910Z,28.40
2019-06-20T16:05:09.224Z,28.40
2019-06-20T16:07:38.227Z,28.30
2019-06-20T16:10:12.465Z,28.30
2019-06-20T16:12:41.320Z,28.10
2019-06-20T16:15:11.123Z,28.00
2019-06-20T16:17:39.643Z,28.00
2019-06-20T16:20:09.025Z,27.90
2019-06-20T16:22:37.671Z,27.80
2019-06-20T16:25:06.867Z,27.80
2019-06-20T16:27:35.466Z,27.70
2019-06-20T16:30:06.872Z,27.70
2019-06-20T16:32:35.507Z,27.60
2019-06-20T16:35:07.325Z,27.60
2019-06-20T16:37:35.951Z,27.50
2019-06-20T16:40:06.535Z,27.50
2019-06-20T16:42:35.094Z,27.40
2019-06-20T16:45:05.279Z,27.40
2019-06-20T16:50:02.354Z,27.30
2019-06-20T16:52:31.047Z,27.30
2019-06-20T16:54:59.516Z,27.20
2019-06-20T16:57:28.062Z,27.20
2019-06-20T16:59:56.964Z,27.10
2019-06-20T17:02:25.486Z,27.10
2019-06-20T17:04:56.511Z,27.00
2019-06-20T17:07:24.531Z,27.00
2019-06-20T17:09:53.013Z,27.00
2019-06-20T17:12:21.736Z,27.00
2019-06-20T17:14:50.248Z,27.00
2019-06-20T17:17:18.841Z,27.00
2019-06-20T17:19:47.487Z,27.00
2019-06-20T17:22:16.024Z,27.00
2019-06-20T17:24:44.698Z,26.90
2019-06-20T17:27:13.185Z,26.90
2019-06-20T17:29:42.040Z,26.80
2019-06-20T17:32:10.593Z,26.80
2019-06-20T17:34:40.120Z,26.70
2019-06-20T17:37:08.838Z,26.70
2019-06-20T17:39:37.793Z,26.60
2019-06-20T17:42:06.417Z,26.60
2019-06-20T17:44:34.957Z,26.60
2019-06-20T17:47:03.581Z,26.50
2019-06-20T17:49:32.477Z,26.50
2019-06-20T17:52:01.078Z,26.50
2019-06-20T17:54:29.565Z,26.50
2019-06-20T17:56:58.135Z,26.50
2019-06-20T17:59:26.740Z,26.40
2019-06-20T18:01:55.629Z,26.40
2019-06-20T18:04:26.794Z,26.40
2019-06-20T18:06:54.769Z,26.40
2019-06-20T18:09:23.255Z,26.40
2019-06-20T18:11:51.904Z,26.50
2019-06-20T18:14:22.379Z,26.50
2019-06-20T18:16:51.042Z,26.50
2019-06-20T18:19:19.508Z,26.50
2019-06-20T18:21:48.090Z,26.50
2019-06-20T18:24:16.623Z,26.50
2019-06-20T18:26:45.539Z,26.60
2019-06-20T18:29:14.181Z,26.60
2019-06-20T18:31:42.720Z,26.60
2019-06-20T18:34:11.187Z,26.60
2019-06-20T18:36:43.339Z,26.60
2019-06-20T18:39:10.414Z,26.80
2019-06-20T18:41:39.171Z,26.80
2019-06-20T18:44:07.678Z,26.80
2019-06-20T18:46:36.508Z,26.90
2019-06-20T18:49:05.449Z,26.90
2019-06-20T18:51:33.926Z,26.90
2019-06-20T18:54:02.452Z,26.90
2019-06-20T18:56:31.134Z,26.90
2019-06-20T18:58:59.864Z,26.90
2019-06-20T19:01:28.575Z,26.90
2019-06-20T19:03:57.134Z,26.90
2019-06-20T19:12:40.797Z,26.80
2019-06-20T19:15:09.813Z,26.80
2019-06-20T19:17:38.333Z,26.70
2019-06-20T19:20:07.704Z,26.60
2019-06-20T19:22:36.423Z,26.40
2019-06-20T19:25:09.039Z,26.40
2019-06-20T19:27:46.273Z,26.20
2019-06-20T19:30:15.795Z,26.20
2019-06-20T19:32:44.379Z,26.10
2019-06-20T19:35:13.281Z,26.00
2019-06-20T19:37:41.941Z,25.90
2019-06-20T19:40:12.261Z,25.80
2019-06-20T19:42:41.239Z,25.70
2019-06-20T19:45:14.697Z,25.70
2019-06-20T19:47:43.426Z,25.60
2019-06-20T19:50:12.757Z,25.60
2019-06-20T19:52:42.260Z,25.60
2019-06-20T19:55:11.931Z,25.50
2019-06-20T19:57:40.481Z,25.50
2019-06-20T20:00:12.159Z,25.50
2019-06-20T20:02:41.155Z,25.50
2019-06-20T20:05:19.004Z,25.40
2019-06-20T20:07:40.790Z,25.40
2019-06-20T20:10:10.041Z,25.40
2019-06-20T20:12:38.567Z,25.40
2019-06-20T20:15:08.371Z,25.40
2019-06-20T20:17:37.317Z,25.40
2019-06-20T20:20:07.642Z,25.30
2019-06-20T20:22:36.136Z,25.30
2019-06-20T20:25:08.405Z,25.30
2019-06-20T20:27:37.297Z,25.30
2019-06-20T20:30:08.505Z,25.30
2019-06-20T20:32:37.080Z,25.30
2019-06-20T20:35:05.725Z,25.30
2019-06-20T20:40:03.921Z,25.30
2019-06-20T20:42:32.528Z,25.30
2019-06-20T20:45:01.033Z,25.20
2019-06-20T20:47:29.619Z,25.20
2019-06-20T20:49:58.141Z,25.20
2019-06-20T20:52:26.819Z,25.20
2019-06-20T20:54:55.459Z,25.10
2019-06-20T20:57:24.043Z,25.10
2019-06-20T20:59:52.571Z,25.10
2019-06-20T21:02:21.103Z,25.00
2019-06-20T21:04:49.675Z,24.90
2019-06-20T21:07:18.183Z,24.90
2019-06-20T21:09:46.765Z,24.80
2019-06-20T21:12:15.346Z,24.80
2019-06-20T21:14:43.807Z,24.70
2019-06-20T21:17:12.379Z,24.60
2019-06-20T21:19:41.089Z,24.50
2019-06-20T21:22:09.650Z,24.50
2019-06-20T21:24:38.207Z,24.40
2019-06-20T21:27:06.742Z,24.40
2019-06-20T21:29:35.370Z,24.30
2019-06-20T21:32:03.922Z,24.30
2019-06-20T21:34:32.648Z,24.20
2019-06-20T21:37:01.231Z,24.20
2019-06-20T21:39:29.722Z,24.20
2019-06-20T21:41:58.247Z,24.10
2019-06-20T21:44:26.810Z,24.00
2019-06-20T21:47:04.220Z,24.00
2019-06-20T21:49:32.673Z,23.90
2019-06-20T21:52:01.149Z,23.90
2019-06-20T21:54:29.956Z,23.90
2019-06-20T21:56:58.587Z,23.90
2019-06-20T21:59:27.113Z,23.80
2019-06-20T22:01:55.901Z,23.80
2019-06-20T22:04:24.554Z,23.80
2019-06-20T22:06:53.435Z,23.80
2019-06-20T22:09:21.963Z,23.70
2019-06-20T22:11:50.523Z,23.70
2019-06-20T22:14:19.309Z,23.60
2019-06-20T22:16:47.848Z,23.60
2019-06-20T22:19:16.384Z,23.60
2019-06-20T22:21:44.997Z,23.50
2019-06-20T22:24:13.557Z,23.50
2019-06-20T22:26:42.128Z,23.50
2019-06-20T22:29:10.588Z,23.50
2019-06-20T22:31:39.128Z,23.50
2019-06-20T22:34:07.610Z,23.40
2019-06-20T22:36:40.407Z,23.50
2019-06-20T22:39:09.159Z,23.50
2019-06-20T22:41:38.000Z,23.50
2019-06-20T22:44:06.612Z,23.50
2019-06-20T22:46:35.232Z,23.50
2019-06-20T22:49:03.768Z,23.50
2019-06-20T22:51:32.441Z,23.40
2019-06-20T22:54:01.191Z,23.40
2019-06-20T22:56:29.742Z,23.40
2019-06-20T22:58:58.366Z,23.40
2019-06-20T23:01:27.127Z,23.40
2019-06-20T23:04:12.385Z,23.40
2019-06-20T23:06:55.274Z,23.40
2019-06-20T23:09:11.399Z,23.40
2019-06-20T23:11:39.984Z,23.40
2019-06-20T23:14:08.732Z,23.40
2019-06-20T23:16:38.308Z,23.40
2019-06-20T23:19:06.911Z,23.40
2019-06-20T23:21:35.414Z,23.50
2019-06-20T23:24:04.283Z,23.50
2019-06-20T23:26:32.918Z,23.50
2019-06-20T23:29:19.412Z,23.50
2019-06-20T23:31:48.239Z,23.40
2019-06-20T23:34:16.992Z,23.40
2019-06-20T23:36:46.117Z,23.40
2019-06-20T23:39:14.626Z,23.40
2019-06-20T23:41:43.402Z,23.40
2019-06-20T23:44:12.010Z,23.40
2019-06-20T23:46:40.563Z,23.40
2019-06-20T23:49:09.324Z,23.40
2019-06-20T23:51:39.674Z,23.40
2019-06-20T23:54:08.434Z,23.40
2019-06-20T23:56:36.991Z,23.40
2019-06-20T23:59:05.824Z,23.40
